createdAt,value
2022-09-10T00:00:18.308Z,90.50
2022-09-10T00:02:45.321Z,90.50
2022-09-10T00:05:13.151Z,90.50
2022-09-10T00:07:40.128Z,90.40
2022-09-10T00:10:08.413Z,90.30
2022-09-10T00:12:36.030Z,90.60
2022-09-10T00:15:05.878Z,90.20
2022-09-10T00:17:33.296Z,90.10
2022-09-10T00:20:00.513Z,90.10
2022-09-10T00:22:27.519Z,90.10
2022-09-10T00:24:57.676Z,90.00
2022-09-10T00:27:24.778Z,89.80
2022-09-10T00:29:53.068Z,89.60
2022-09-10T00:32:21.741Z,89.40
2022-09-10T00:34:48.814Z,89.30
2022-09-10T00:37:16.448Z,89.20
2022-09-10T00:39:43.554Z,89.20
2022-09-10T00:42:13.639Z,89.00
2022-09-10T00:44:40.649Z,89.00
2022-09-10T00:47:21.355Z,88.90
2022-09-10T00:49:53.106Z,88.90
2022-09-10T00:52:20.214Z,88.80
2022-09-10T00:54:48.251Z,88.70
2022-09-10T00:57:20.772Z,88.70
2022-09-10T00:59:53.349Z,88.60
2022-09-10T01:02:21.675Z,88.50
2022-09-10T01:04:50.108Z,88.50
2022-09-10T01:07:18.931Z,88.50
2022-09-10T01:09:46.203Z,88.40
2022-09-10T01:12:38.307Z,88.30
2022-09-10T01:15:08.147Z,88.30
2022-09-10T01:17:53.730Z,88.40
2022-09-10T01:20:40.470Z,88.50
2022-09-10T01:23:29.228Z,88.50
2022-09-10T01:26:14.437Z,88.60
2022-09-10T01:28:50.842Z,88.70
2022-09-10T01:31:49.975Z,88.70
2022-09-10T01:34:42.458Z,88.80
2022-09-10T01:37:17.573Z,89.00
2022-09-10T01:39:47.334Z,89.00
2022-09-10T01:42:16.182Z,89.10
2022-09-10T01:44:51.589Z,89.20
2022-09-10T01:47:46.256Z,89.40
2022-09-10T01:50:38.788Z,89.50
2022-09-10T01:53:11.513Z,89.10
2022-09-10T01:56:20.584Z,88.90
2022-09-10T01:58:49.276Z,89.10
2022-09-10T02:01:52.556Z,89.30
2022-09-10T02:04:21.730Z,89.40
2022-09-10T02:06:51.684Z,89.40
2022-09-10T02:09:19.961Z,89.60
2022-09-10T02:11:53.695Z,89.60
2022-09-10T02:14:40.949Z,89.50
2022-09-10T02:17:19.239Z,89.40
2022-09-10T02:19:51.392Z,89.60
2022-09-10T02:22:20.290Z,89.70
2022-09-10T02:24:47.254Z,89.80
2022-09-10T02:27:15.007Z,89.80
2022-09-10T02:29:42.342Z,89.70
2022-09-10T02:32:10.227Z,90.00
2022-09-10T02:34:37.411Z,90.00
2022-09-10T02:37:04.504Z,90.00
2022-09-10T02:39:31.726Z,89.70
2022-09-10T02:41:59.754Z,89.20
2022-09-10T02:44:28.334Z,87.20
2022-09-10T02:46:55.867Z,86.00
2022-09-10T02:49:22.784Z,83.50
2022-09-10T02:51:53.095Z,81.90
2022-09-10T02:54:20.034Z,80.80
2022-09-10T02:56:50.196Z,80.30
2022-09-10T02:59:20.389Z,79.20
2022-09-10T03:01:48.373Z,79.40
2022-09-10T03:04:16.295Z,79.50
2022-09-10T03:06:48.406Z,79.40
2022-09-10T03:09:16.540Z,75.80
2022-09-10T03:11:43.533Z,74.90
2022-09-10T03:14:10.956Z,74.40
2022-09-10T03:16:38.163Z,73.30
2022-09-10T03:19:06.816Z,72.80
2022-09-10T03:21:34.402Z,71.60
2022-09-10T03:24:02.135Z,72.20
2022-09-10T03:26:30.876Z,71.50
2022-09-10T03:28:58.196Z,71.90
2022-09-10T03:31:27.682Z,72.60
2022-09-10T03:33:54.919Z,73.20
2022-09-10T03:36:22.920Z,73.80
2022-09-10T03:38:50.673Z,74.60
2022-09-10T03:41:17.738Z,75.40
2022-09-10T03:43:45.580Z,77.00
2022-09-10T03:46:12.799Z,77.70
2022-09-10T03:48:45.564Z,78.30
2022-09-10T03:51:13.430Z,78.80
2022-09-10T03:53:41.027Z,79.20
2022-09-10T03:56:12.856Z,80.30
2022-09-10T03:58:40.949Z,80.00
2022-09-10T04:01:09.542Z,80.40
2022-09-10T04:03:39.249Z,80.80
2022-09-10T04:06:11.003Z,80.90
2022-09-10T04:08:38.677Z,81.00
2022-09-10T04:11:08.344Z,81.20
2022-09-10T04:13:35.511Z,81.40
2022-09-10T04:16:03.017Z,81.50
2022-09-10T04:18:34.217Z,81.70
2022-09-10T04:21:02.503Z,81.80
2022-09-10T04:23:29.868Z,81.90
2022-09-10T04:25:57.178Z,81.90
2022-09-10T04:28:24.823Z,81.80
2022-09-10T04:30:52.721Z,81.70
2022-09-10T04:33:22.461Z,81.60
2022-09-10T04:35:49.542Z,81.60
2022-09-10T04:38:16.702Z,81.80
2022-09-10T04:40:47.679Z,82.00
2022-09-10T04:43:15.884Z,82.00
2022-09-10T04:45:43.968Z,82.70
2022-09-10T04:48:12.061Z,82.00
2022-09-10T04:50:54.065Z,81.80
2022-09-10T04:53:28.166Z,82.40
2022-09-10T04:55:57.622Z,81.90
2022-09-10T04:58:24.721Z,81.90
2022-09-10T05:00:51.888Z,82.00
2022-09-10T05:03:20.179Z,82.10
2022-09-10T05:05:48.289Z,82.10
2022-09-10T05:08:15.483Z,82.00
2022-09-10T05:10:49.749Z,81.90
2022-09-10T05:13:17.268Z,81.80
2022-09-10T05:15:46.147Z,81.60
2022-09-10T05:18:16.653Z,81.50
2022-09-10T05:20:47.506Z,81.40
2022-09-10T05:23:14.465Z,81.10
2022-09-10T05:25:44.511Z,81.10
2022-09-10T05:28:12.219Z,81.10
2022-09-10T05:30:39.236Z,81.30
2022-09-10T05:33:06.399Z,81.30
2022-09-10T05:35:34.758Z,81.50
2022-09-10T05:38:02.273Z,81.50
2022-09-10T05:40:35.491Z,81.40
2022-09-10T05:43:03.338Z,81.30
2022-09-10T05:45:30.998Z,81.50
2022-09-10T05:47:58.374Z,81.70
2022-09-10T05:50:25.496Z,81.70
2022-09-10T05:52:53.631Z,81.70
2022-09-10T05:55:20.870Z,81.80
2022-09-10T05:57:48.982Z,81.70
2022-09-10T06:00:18.938Z,81.50
2022-09-10T06:02:54.405Z,81.00
2022-09-10T06:05:28.431Z,79.40
2022-09-10T06:07:56.696Z,76.90
2022-09-10T06:10:23.907Z,74.70
2022-09-10T06:12:52.132Z,72.90
2022-09-10T06:15:21.237Z,71.50
2022-09-10T06:17:50.091Z,71.10
2022-09-10T06:20:18.063Z,71.40
2022-09-10T06:22:46.691Z,72.20
2022-09-10T06:25:13.718Z,73.00
2022-09-10T06:27:41.530Z,73.10
2022-09-10T06:30:09.025Z,73.60
2022-09-10T06:32:39.925Z,74.00
2022-09-10T06:35:09.295Z,74.00
2022-09-10T06:37:37.231Z,73.10
2022-09-10T06:40:07.490Z,73.20
2022-09-10T06:42:35.173Z,73.70
2022-09-10T06:45:14.194Z,73.80
2022-09-10T06:50:58.230Z,72.60
2022-09-10T06:53:33.368Z,72.70
2022-09-10T06:56:02.561Z,72.10
2022-09-10T06:58:36.065Z,71.60
2022-09-10T07:01:16.043Z,71.20
2022-09-10T07:03:47.742Z,70.60
2022-09-10T07:06:16.946Z,70.20
2022-09-10T07:08:47.124Z,70.30
2022-09-10T07:11:15.876Z,69.80
2022-09-10T07:13:44.228Z,70.00
2022-09-10T07:16:11.758Z,70.40
2022-09-10T07:18:38.991Z,70.40
2022-09-10T07:21:11.628Z,70.70
2022-09-10T07:23:44.288Z,70.50
2022-09-10T07:26:15.191Z,70.00
2022-09-10T07:28:48.571Z,69.30
2022-09-10T07:31:20.470Z,69.70
2022-09-10T07:33:49.745Z,69.20
2022-09-10T07:36:17.984Z,67.90
2022-09-10T07:38:48.024Z,67.90
2022-09-10T07:41:15.504Z,67.50
2022-09-10T07:43:44.349Z,66.90
2022-09-10T07:46:20.583Z,66.20
2022-09-10T07:48:57.711Z,66.40
2022-09-10T07:51:26.949Z,65.90
2022-09-10T07:53:58.416Z,66.30
2022-09-10T07:56:34.018Z,65.20
2022-09-10T07:59:03.787Z,64.10
2022-09-10T08:01:37.872Z,64.30
2022-09-10T08:04:07.318Z,64.60
2022-09-10T08:06:37.948Z,65.20
2022-09-10T08:09:07.399Z,63.70
2022-09-10T08:11:40.041Z,63.20
2022-09-10T08:14:10.218Z,63.30
2022-09-10T08:16:40.172Z,62.30
2022-09-10T08:19:13.842Z,61.60
2022-09-10T08:21:41.314Z,61.20
2022-09-10T08:24:10.523Z,61.50
2022-09-10T08:26:39.555Z,60.80
2022-09-10T08:29:07.291Z,60.90
2022-09-10T08:31:34.748Z,60.50
2022-09-10T08:34:09.304Z,60.60
2022-09-10T08:36:39.466Z,60.20
2022-09-10T08:39:08.539Z,58.80
2022-09-10T08:41:39.369Z,58.00
2022-09-10T08:44:40.389Z,56.80
2022-09-10T08:47:38.934Z,56.80
2022-09-10T08:50:38.164Z,57.80
2022-09-10T08:53:37.584Z,57.30
2022-09-10T08:56:15.703Z,55.50
2022-09-10T08:58:50.609Z,55.40
2022-09-10T09:02:01.144Z,56.20
2022-09-10T09:04:36.832Z,55.70
2022-09-10T09:07:12.964Z,55.20
2022-09-10T09:09:42.884Z,56.30
2022-09-10T09:12:21.096Z,55.20
2022-09-10T09:15:13.858Z,55.10
2022-09-10T09:18:04.079Z,53.50
2022-09-10T09:20:53.718Z,54.60
2022-09-10T09:23:33.410Z,55.70
2022-09-10T09:26:13.819Z,54.40
2022-09-10T09:28:55.116Z,54.20
2022-09-10T09:31:38.698Z,54.10
2022-09-10T09:34:20.711Z,53.60
2022-09-10T09:36:56.811Z,53.90
2022-09-10T09:39:36.957Z,52.90
2022-09-10T09:42:10.041Z,52.70
2022-09-10T09:44:55.053Z,53.10
2022-09-10T09:47:24.069Z,52.10
2022-09-10T09:49:52.050Z,51.30
2022-09-10T09:52:22.776Z,52.20
2022-09-10T09:57:42.830Z,52.40
2022-09-10T10:00:36.233Z,52.20
2022-09-10T10:03:13.071Z,51.80
2022-09-10T10:05:40.115Z,51.50
2022-09-10T10:08:19.414Z,51.20
2022-09-10T10:10:52.169Z,51.40
2022-09-10T10:13:22.716Z,52.10
2022-09-10T10:15:50.694Z,51.70
2022-09-10T10:18:24.156Z,51.80
2022-09-10T10:21:12.461Z,52.50
2022-09-10T10:23:39.890Z,51.70
2022-09-10T10:26:21.953Z,51.50
2022-09-10T10:28:56.359Z,51.20
2022-09-10T10:31:23.740Z,50.80
2022-09-10T10:34:16.937Z,51.70
2022-09-10T10:37:14.430Z,51.20
2022-09-10T10:40:02.580Z,51.00
2022-09-10T10:42:32.411Z,50.80
2022-09-10T10:45:14.431Z,50.60
2022-09-10T10:47:46.449Z,49.50
2022-09-10T10:50:31.038Z,50.60
2022-09-10T10:53:00.981Z,49.80
2022-09-10T10:55:50.345Z,50.10
2022-09-10T10:58:23.712Z,49.70
2022-09-10T11:01:02.981Z,50.30
2022-09-10T11:03:42.877Z,50.60
2022-09-10T11:06:14.970Z,50.90
2022-09-10T11:08:42.398Z,50.90
2022-09-10T11:11:13.338Z,51.30
2022-09-10T11:13:46.767Z,50.30
2022-09-10T11:16:16.793Z,50.10
2022-09-10T11:19:07.824Z,50.10
2022-09-10T11:21:40.839Z,49.30
2022-09-10T11:24:34.237Z,49.60
2022-09-10T11:27:18.372Z,49.30
2022-09-10T11:30:19.327Z,49.00
2022-09-10T11:32:59.945Z,48.10
2022-09-10T11:35:33.908Z,48.10
2022-09-10T11:38:12.917Z,48.60
2022-09-10T11:40:58.871Z,48.40
2022-09-10T11:43:47.786Z,47.60
2022-09-10T11:46:25.383Z,48.30
2022-09-10T11:49:04.148Z,47.50
2022-09-10T11:51:37.728Z,48.80
2022-09-10T11:54:10.076Z,48.70
2022-09-10T11:57:01.516Z,49.60
2022-09-10T11:59:49.408Z,49.40
2022-09-10T12:02:53.761Z,48.00
2022-09-10T12:05:26.364Z,48.10
2022-09-10T12:08:35.048Z,48.10
2022-09-10T12:11:17.037Z,47.80
2022-09-10T12:13:45.789Z,47.60
2022-09-10T12:16:45.117Z,47.90
2022-09-10T12:19:37.593Z,47.00
2022-09-10T12:22:09.358Z,48.50
2022-09-10T12:24:39.481Z,48.10
2022-09-10T12:27:07.814Z,48.00
2022-09-10T12:29:40.836Z,48.00
2022-09-10T12:32:19.976Z,48.60
2022-09-10T12:34:49.876Z,48.20
2022-09-10T12:37:28.198Z,48.00
2022-09-10T12:40:22.886Z,47.80
2022-09-10T12:42:49.817Z,47.80
2022-09-10T12:46:09.064Z,47.10
2022-09-10T12:48:40.104Z,47.40
2022-09-10T12:51:46.259Z,47.30
2022-09-10T12:54:50.859Z,48.00
2022-09-10T12:57:35.196Z,47.30
2022-09-10T13:00:23.885Z,47.00
2022-09-10T13:03:15.278Z,48.30
2022-09-10T13:05:45.078Z,47.30
2022-09-10T13:08:13.834Z,47.40
2022-09-10T13:10:47.405Z,46.50
2022-09-10T13:13:36.533Z,46.10
2022-09-10T13:16:05.601Z,45.70
2022-09-10T13:18:35.084Z,46.20
2022-09-10T13:21:31.441Z,46.30
2022-09-10T13:23:58.451Z,46.30
2022-09-10T13:26:31.507Z,47.10
2022-09-10T13:29:00.734Z,46.50
2022-09-10T13:31:42.284Z,46.50
2022-09-10T13:34:15.311Z,45.50
2022-09-10T13:37:12.277Z,46.00
2022-09-10T13:40:00.080Z,46.00
2022-09-10T13:42:56.493Z,45.60
2022-09-10T13:45:41.619Z,45.50
2022-09-10T13:48:17.455Z,46.50
2022-09-10T13:50:53.224Z,46.30
2022-09-10T13:53:21.385Z,46.00
2022-09-10T13:56:01.692Z,46.60
2022-09-10T13:58:36.381Z,45.60
2022-09-10T14:01:05.132Z,45.40
2022-09-10T14:03:34.787Z,45.80
2022-09-10T14:06:05.187Z,45.90
2022-09-10T14:08:49.523Z,46.70
2022-09-10T14:11:21.476Z,46.60
2022-09-10T14:14:11.299Z,45.50
2022-09-10T14:17:10.896Z,46.10
2022-09-10T14:19:51.196Z,46.60
2022-09-10T14:22:26.391Z,45.90
2022-09-10T14:24:58.401Z,45.90
2022-09-10T14:27:37.562Z,45.90
2022-09-10T14:30:21.505Z,45.80
2022-09-10T14:32:48.509Z,44.90
2022-09-10T14:35:39.320Z,45.60
2022-09-10T14:38:29.219Z,47.20
2022-09-10T14:41:16.617Z,46.00
2022-09-10T14:43:45.669Z,46.30
2022-09-10T14:46:46.319Z,46.50
2022-09-10T14:49:18.748Z,46.20
2022-09-10T14:51:47.261Z,46.50
2022-09-10T14:54:14.973Z,46.80
2022-09-10T14:56:47.393Z,45.50
2022-09-10T14:59:32.187Z,44.90
2022-09-10T15:02:04.477Z,44.80
2022-09-10T15:04:31.726Z,45.30
2022-09-10T15:07:00.490Z,45.60
2022-09-10T15:09:29.235Z,45.90
2022-09-10T15:11:56.160Z,46.30
2022-09-10T15:14:23.656Z,45.20
2022-09-10T15:16:52.262Z,45.30
2022-09-10T15:19:20.395Z,45.30
2022-09-10T15:21:48.157Z,45.80
2022-09-10T15:24:20.541Z,46.80
2022-09-10T15:26:48.222Z,47.00
2022-09-10T15:29:16.125Z,46.70
2022-09-10T15:31:45.704Z,46.70
2022-09-10T15:34:13.061Z,45.70
2022-09-10T15:36:41.231Z,46.10
2022-09-10T15:39:13.494Z,46.80
2022-09-10T15:41:44.772Z,47.10
2022-09-10T15:44:12.211Z,47.10
2022-09-10T15:46:45.599Z,47.60
2022-09-10T15:49:12.621Z,46.70
2022-09-10T15:51:39.648Z,46.30
2022-09-10T15:54:06.890Z,47.30
2022-09-10T15:56:33.829Z,47.50
2022-09-10T15:59:01.883Z,46.70
2022-09-10T16:01:29.506Z,46.90
2022-09-10T16:04:04.024Z,47.10
2022-09-10T16:06:37.715Z,47.40
2022-09-10T16:09:07.762Z,47.60
2022-09-10T16:11:36.721Z,47.80
2022-09-10T16:14:07.142Z,48.00
2022-09-10T16:16:35.957Z,48.40
2022-09-10T16:19:04.432Z,48.30
2022-09-10T16:21:33.780Z,47.30
2022-09-10T16:24:01.581Z,47.00
2022-09-10T16:26:31.757Z,46.90
2022-09-10T16:29:00.927Z,47.20
2022-09-10T16:31:36.616Z,47.30
2022-09-10T16:34:06.979Z,47.90
2022-09-10T16:36:36.938Z,48.30
2022-09-10T16:39:07.190Z,48.70
2022-09-10T16:41:34.137Z,48.90
2022-09-10T16:44:01.174Z,48.90
2022-09-10T16:46:28.682Z,49.30
2022-09-10T16:48:56.756Z,49.70
2022-09-10T16:51:25.465Z,49.70
2022-09-10T16:54:02.281Z,49.60
2022-09-10T16:56:34.692Z,49.20
2022-09-10T16:59:02.260Z,48.90
2022-09-10T17:01:29.585Z,48.70
2022-09-10T17:03:57.163Z,48.60
2022-09-10T17:06:26.638Z,48.80
2022-09-10T17:08:55.324Z,48.70
2022-09-10T17:11:22.899Z,48.60
2022-09-10T17:13:50.949Z,49.10
2022-09-10T17:16:20.988Z,49.90
2022-09-10T17:18:59.823Z,50.10
2022-09-10T17:21:29.113Z,50.30
2022-09-10T17:23:56.460Z,51.30
2022-09-10T17:26:27.135Z,51.40
2022-09-10T17:28:56.160Z,52.20
2022-09-10T17:31:23.900Z,53.10
2022-09-10T17:33:51.797Z,53.80
2022-09-10T17:36:19.913Z,54.40
2022-09-10T17:38:47.366Z,54.90
2022-09-10T17:41:15.144Z,55.10
2022-09-10T17:43:43.585Z,55.20
2022-09-10T17:46:22.646Z,55.20
2022-09-10T17:48:50.755Z,55.70
2022-09-10T17:51:24.546Z,55.80
2022-09-10T17:53:53.791Z,56.30
2022-09-10T17:56:22.570Z,56.40
2022-09-10T17:58:50.796Z,56.80
2022-09-10T18:01:24.220Z,57.70
2022-09-10T18:03:52.003Z,58.60
2022-09-10T18:06:21.340Z,58.30
2022-09-10T18:08:50.418Z,58.20
2022-09-10T18:11:23.679Z,58.10
2022-09-10T18:13:52.502Z,58.50
2022-09-10T18:16:22.059Z,58.80
2022-09-10T18:18:54.521Z,59.40
2022-09-10T18:21:24.134Z,60.00
2022-09-10T18:23:56.248Z,60.40
2022-09-10T18:26:26.232Z,61.00
2022-09-10T18:28:58.529Z,61.70
2022-09-10T18:31:28.004Z,62.60
2022-09-10T18:33:55.807Z,63.70
2022-09-10T18:36:24.425Z,64.10
2022-09-10T18:38:51.833Z,64.50
2022-09-10T18:41:33.748Z,64.80
2022-09-10T18:44:04.036Z,65.30
2022-09-10T18:46:32.428Z,65.20
2022-09-10T18:48:59.652Z,65.30
2022-09-10T18:51:28.753Z,65.50
2022-09-10T18:54:00.848Z,65.80
2022-09-10T18:56:31.052Z,66.30
2022-09-10T18:59:01.183Z,66.50
2022-09-10T19:01:31.209Z,66.60
2022-09-10T19:03:58.867Z,66.80
2022-09-10T19:06:29.270Z,66.90
2022-09-10T19:08:59.392Z,66.90
2022-09-10T19:11:37.955Z,66.90
2022-09-10T19:14:08.420Z,67.30
2022-09-10T19:16:36.197Z,67.30
2022-09-10T19:19:05.901Z,67.60
2022-09-10T19:21:35.399Z,67.80
2022-09-10T19:24:03.732Z,68.00
2022-09-10T19:26:34.170Z,68.00
2022-09-10T19:29:02.277Z,68.10
2022-09-10T19:31:31.887Z,68.20
2022-09-10T19:34:01.597Z,68.30
2022-09-10T19:36:31.687Z,68.40
2022-09-10T19:38:59.643Z,68.50
2022-09-10T19:41:27.116Z,68.70
2022-09-10T19:43:54.878Z,68.90
2022-09-10T19:46:24.940Z,69.30
2022-09-10T19:48:53.243Z,69.60
2022-09-10T19:51:21.517Z,69.90
2022-09-10T19:53:49.539Z,70.50
2022-09-10T19:56:20.707Z,70.90
2022-09-10T19:58:50.670Z,71.50
2022-09-10T20:01:21.173Z,71.60
2022-09-10T20:03:48.374Z,71.90
2022-09-10T20:06:18.440Z,72.20
2022-09-10T20:08:47.209Z,72.40
2022-09-10T20:11:20.783Z,72.40
2022-09-10T20:13:48.151Z,72.60
2022-09-10T20:16:16.750Z,72.50
2022-09-10T20:18:43.732Z,72.50
2022-09-10T20:21:14.864Z,72.50
2022-09-10T20:23:44.161Z,72.60
2022-09-10T20:26:15.933Z,72.80
2022-09-10T20:28:43.874Z,73.00
2022-09-10T20:31:13.065Z,73.20
2022-09-10T20:33:42.395Z,73.40
2022-09-10T20:36:13.059Z,73.60
2022-09-10T20:38:40.180Z,73.60
2022-09-10T20:41:07.991Z,73.60
2022-09-10T20:43:35.062Z,73.70
2022-09-10T20:46:02.394Z,73.70
2022-09-10T20:48:31.068Z,73.90
2022-09-10T20:50:59.868Z,73.90
2022-09-10T20:53:27.395Z,74.10
2022-09-10T20:56:06.466Z,73.90
2022-09-10T20:58:36.632Z,73.90
2022-09-10T21:01:11.977Z,73.90
2022-09-10T21:03:43.758Z,74.10
2022-09-10T21:06:12.452Z,74.00
2022-09-10T21:08:41.228Z,74.00
2022-09-10T21:11:10.931Z,74.10
2022-09-10T21:13:42.513Z,74.30
2022-09-10T21:16:11.417Z,75.20
2022-09-10T21:18:41.220Z,74.50
2022-09-10T21:21:14.030Z,74.60
2022-09-10T21:23:46.380Z,74.60
2022-09-10T21:26:15.671Z,74.70
2022-09-10T21:28:44.804Z,75.40
2022-09-10T21:31:13.100Z,75.00
2022-09-10T21:33:41.708Z,75.20
2022-09-10T21:36:11.896Z,75.50
2022-09-10T21:38:39.208Z,75.70
2022-09-10T21:41:11.143Z,75.70
2022-09-10T21:43:43.113Z,75.80
2022-09-10T21:46:10.657Z,76.00
2022-09-10T21:48:37.735Z,76.20
2022-09-10T21:51:11.665Z,76.40
2022-09-10T21:53:39.628Z,76.50
2022-09-10T21:56:07.126Z,76.50
2022-09-10T21:58:36.381Z,76.50
2022-09-10T22:01:08.497Z,76.60
2022-09-10T22:03:36.128Z,76.70
2022-09-10T22:06:07.061Z,76.80
2022-09-10T22:08:34.415Z,76.90
2022-09-10T22:11:07.480Z,77.20
2022-09-10T22:13:36.666Z,77.40
2022-09-10T22:16:05.835Z,77.50
2022-09-10T22:18:34.215Z,77.60
2022-09-10T22:21:02.168Z,77.70
2022-09-10T22:23:31.293Z,77.90
2022-09-10T22:26:18.902Z,78.00
2022-09-10T22:28:46.440Z,78.40
2022-09-10T22:31:19.225Z,78.50
2022-09-10T22:33:51.773Z,78.80
2022-09-10T22:36:23.763Z,79.00
2022-09-10T22:39:05.813Z,79.10
2022-09-10T22:41:34.807Z,79.20
2022-09-10T22:44:02.733Z,79.40
2022-09-10T22:46:30.236Z,79.60
2022-09-10T22:48:57.420Z,79.90
2022-09-10T22:51:27.101Z,80.10
2022-09-10T22:53:55.393Z,80.20
2022-09-10T22:56:26.096Z,80.50
2022-09-10T22:58:54.159Z,80.70
2022-09-10T23:01:23.798Z,80.90
2022-09-10T23:03:52.151Z,80.90
2022-09-10T23:06:21.821Z,81.00
2022-09-10T23:08:51.121Z,81.20
2022-09-10T23:11:23.740Z,81.40
2022-09-10T23:13:53.248Z,81.30
2022-09-10T23:16:26.724Z,81.40
2022-09-10T23:18:55.443Z,81.50
2022-09-10T23:21:24.565Z,81.70
2022-09-10T23:23:56.870Z,81.60
2022-09-10T23:26:24.171Z,81.60
2022-09-10T23:28:51.357Z,81.60
2022-09-10T23:31:21.307Z,81.70
2022-09-10T23:33:55.251Z,81.90
2022-09-10T23:36:22.778Z,82.10
2022-09-10T23:38:50.157Z,82.20
2022-09-10T23:41:17.401Z,82.50
2022-09-10T23:43:45.521Z,82.80
2022-09-10T23:46:13.171Z,83.00
2022-09-10T23:48:42.713Z,83.10
2022-09-10T23:51:15.665Z,83.20
2022-09-10T23:53:46.339Z,83.30
2022-09-10T23:56:14.846Z,83.10
2022-09-10T23:58:41.926Z,83.00
